Nearby METAR Reports

 

KGLD - Renner Field Goodland, Kansas, USA
Distance from station: W 39mi, 59km
Updated: Fri, 12-Apr-2024 5:53am CDT
Clear
Clear
 Wind from SSE
Wind: SSE 6 mph, 9 km/h
Temperature: 32°F, 0°C
Wind Chill: 26°F, -3°C
Dew Point: 19°F, -7°C
Humidity: 60%
Barometer: 30.11 inHg, 1019.6 hPa
Clouds: Clear
Visibility: 10 miles, 16 km
2024/04/12 10:53 KGLD 121053Z AUTO 15005KT 10SM CLR 00/M07 A3011 RMK AO2 SLP189 T00001072
KCBK - Colby Municipal Airport Colby, Kansas, USA
Distance from station: N 2mi, 3km
Updated: Fri, 12-Apr-2024 6:15am CDT
Clear
Clear
 Wind from E
Wind: E 6 mph, 9 km/h
Temperature: 34°F, 1°C
Wind Chill: 29°F, -2°C
Dew Point: 16°F, -9°C
Humidity: 48%
Barometer: 30.14 inHg, 1020.7 hPa
Clouds: Clear
Visibility: 10 miles, 16 km
2024/04/12 11:15 KCBK 121115Z AUTO 09005KT 10SM CLR 01/M09 A3014 RMK AO2 T00111086
 
KMCK - Ben Nelson Regional Airport McCook, Nebraska, USA
Distance from station: NW 61mi, 98km
Updated: Fri, 12-Apr-2024 5:53am CDT
Clear
Clear
 Wind from SSW
Wind: SSW 3 mph, 6 km/h
Temperature: 30°F, -1°C
Dew Point: 19°F, -7°C
Humidity: 64%
Barometer: 30.16 inHg, 1021.3 hPa
Clouds: Clear
Visibility: 10 miles, 16 km
2024/04/12 10:53 KMCK 121053Z AUTO 21003KT 10SM CLR M01/M07 A3016 RMK AO2 SLP215 T10061067 $
KHLC - Hill City Municipal Airport Hill City, Kansas, USA
Distance from station: E 65mi, 104km
Updated: Fri, 12-Apr-2024 5:53am CDT
Clear
Clear
 Wind from calm
Wind: Calm
Temperature: 28°F, -2°C
Dew Point: 19°F, -7°C
Humidity: 69%
Barometer: 30.16 inHg, 1021.3 hPa
Clouds: Clear
Visibility: 10 miles, 16 km
2024/04/12 10:53 KHLC 121053Z AUTO 00000KT 10SM CLR M02/M07 A3016 RMK AO2 SLP218 T10221072
 
KHYS - Hays Regional Airport Hays, Kansas, USA
Distance from station: E 103mi, 166km
Updated: Fri, 12-Apr-2024 5:56am CDT
Clear
Clear
 Wind from calm
Wind: Calm
Temperature: 32°F, 0°C
Dew Point: 21°F, -6°C
Humidity: 64%
Barometer: 30.16 inHg, 1021.3 hPa
Clouds: Clear
Visibility: 10 miles, 16 km
2024/04/12 10:56 KHYS 121056Z AUTO 00000KT 10SM CLR 00/M06 A3016 RMK AO2 SLP219 T00001061 FZRANO
KITR - Kit Carson County Airport Burlington, Colorado, USA
Distance from station: W 105mi, 34km
Updated: Fri, 12-Apr-2024 5:53am CDT
Clear
Clear
 Wind from S
Wind: S 6 mph, 9 km/h
Temperature: 36°F, 2°C
Wind Chill: 31°F, -1°C
Dew Point: 25°F, -4°C
Humidity: 65%
Barometer: 30.10 inHg, 1019.3 hPa
Clouds: Clear
Visibility: 10 miles, 16 km
2024/04/12 10:53 KITR 121053Z AUTO 17005KT 10SM CLR 02/M04 A3010 RMK AO2 SLP177 T00221039
 
KSFO - Limon Municipal Airport, Colorado, USA
Distance from station: W 142mi, 227km
Updated: Fri, 12-Apr-2024 5:56am CDT
Few Clouds
Few Clouds
 Wind from W
Wind: W 9 mph, 15 km/h
Temperature: 52°F, 11°C
Dew Point: 46°F, 8°C
Humidity: 82%
Barometer: 29.76 inHg, 1007.8 hPa
Clouds: Few Clouds
Visibility: 10 miles, 16 km
Cloud details: Few Clouds 400 ft
2024/04/12 10:56 KSFO 121056Z 28008KT 10SM FEW004 11/08 A2976 RMK AO2 SLP076 T01060078
KBKF - Buckley Air Force Base Aurora, Colorado, USA
Distance from station: W 182mi, 293km
Updated: Fri, 12-Apr-2024 5:58am CDT
Clear
Clear
 Wind from S
Wind: S 15 mph, 24 km/h
Temperature: 45°F, 7°C
Wind Chill: 38°F, 3°C
Dew Point: 21°F, -6°C
Humidity: 39%
Barometer: 30.07 inHg, 1018.3 hPa
Clouds: Clear
Visibility: 10 miles, 16 km
2024/04/12 10:58 KBKF 121058Z 19013KT 10SM CLR 07/M06 A3007 RMK AO2A SLP141 T00701060